Almont, MI

3:56 AM EDT on September 04, 2015 (GMT -0400)
PartsUnknown | | Change Station
CLOSE
Current Station
Personal Weather Station
Location: Leonard, MI
Elevation: 1092 ft
Nearby Weather Stations

Elev 1092 ft 42.87 °N, 83.17 °W | Updated 12 seconds ago

Overcast
Overcast
66.6 °F
Feels Like 66.6 °F
N
2.9
Wind Variable Wind from SSE
Gusts 4.0 mph

Today
High -- | Low -- °F
--% Chance of Precip.
Yesterday
High -- | Low -- °F
Precip. -- in
6:59 AM 8:02 PM
Waning Gibbous, 62% visible
Pressure 29.96 in
Visibility 10.0 miles
Clouds Overcast 700 ft
Dew Point 67 °F
Humidity 100%
Rainfall 0.00 in
Snow Depth Not available.
UV 0 out of 12
Pollen 9.70 out of 12
Air Quality Not available.
Flu Activity Not available.
METAR KD95 040733Z AUTO 00000KT 10SM OVC007 20/20 A2996 RMK AO2 T01970195
Pressure 29.96 in
Visibility 10.0 miles
Clouds Overcast 700 ft
Dew Point 67 °F
Humidity 100%
Rainfall 0.00 in
Snow Depth Not available.
UV 0 out of 12
Pollen 9.70 out of 12
Air Quality Not available.
Flu Activity Not available.
METAR KD95 040733Z AUTO 00000KT 10SM OVC007 20/20 A2996 RMK AO2 T01970195

10-Day Weather Forecast

×

Almanac

Astronomy

Sep. 04, 2015 Rise Set
Actual Time
Civil Twilight
Nautical Twilight
Astronomical Twilight
Moon
Length of Visible Light
Length of Day
Tomorrow will be .
, % of the Moon is Illuminated

Today's Extremes

State Highs State Lows

Community

WunderPhotos

Upload Photos

1,852,132 photos uploaded!

WunderBlogs® & News

Nearby

Air Quality

  Air Quality AQ Index Pollutant
Not available.

Snow Depth

Station Depth Elevation

Earthquake Activity

City Distance Mag. Time & Date
Minimum magnitude displayed is 2.5.

Coastal Water Temperatures

Place Temperature

Stations

Nearby Weather Stations

Station Location Temp. Windchill Dew Point Humidity Wind Precip. Elev Updated Type